createdAt,value
2022-09-23T00:00:20.406Z,100956.41
2022-09-23T00:03:09.164Z,100952.65
2022-09-23T00:05:38.189Z,100957.86
2022-09-23T00:08:08.328Z,100956.95
2022-09-23T00:10:38.616Z,100954.48
2022-09-23T00:13:07.730Z,100953.89
2022-09-23T00:15:39.954Z,100954.92
2022-09-23T00:18:08.316Z,100952.27
2022-09-23T00:20:36.469Z,100954.13
2022-09-23T00:23:04.505Z,100952.44
2022-09-23T00:25:32.602Z,100956.54
2022-09-23T00:28:01.311Z,100954.20
2022-09-23T00:30:29.924Z,100955.38
2022-09-23T00:32:58.216Z,100951.84
2022-09-23T00:35:26.399Z,100948.00
2022-09-23T00:37:54.420Z,100952.34
2022-09-23T00:40:23.103Z,100950.57
2022-09-23T00:42:54.208Z,100948.45
2022-09-23T00:45:22.467Z,100948.41
2022-09-23T00:48:02.817Z,100945.73
2022-09-23T00:50:36.679Z,100942.86
2022-09-23T00:53:08.557Z,100938.94
2022-09-23T00:55:49.233Z,100939.02
2022-09-23T00:58:22.460Z,100936.00
2022-09-23T01:00:50.710Z,100932.11
2022-09-23T01:03:20.024Z,100927.00
2022-09-23T01:05:48.311Z,100922.98
2022-09-23T01:08:16.657Z,100922.93
2022-09-23T01:11:06.737Z,100917.81
2022-09-23T01:13:40.679Z,100918.79
2022-09-23T01:16:33.543Z,100916.27
2022-09-23T01:19:28.931Z,100915.49
2022-09-23T01:22:11.782Z,100909.67
2022-09-23T01:24:59.715Z,100904.96
2022-09-23T01:27:33.866Z,100904.60
2022-09-23T01:30:33.106Z,100899.91
2022-09-23T01:33:08.327Z,100902.66
2022-09-23T01:35:55.044Z,100903.64
2022-09-23T01:38:39.724Z,100901.81
2022-09-23T01:41:32.066Z,100899.15
2022-09-23T01:44:15.231Z,100894.39
2022-09-23T01:46:55.020Z,100890.52
2022-09-23T01:49:40.291Z,100890.16
2022-09-23T01:52:27.203Z,100886.11
2022-09-23T01:55:04.795Z,100886.38
2022-09-23T01:57:38.921Z,100886.47
2022-09-23T02:00:14.040Z,100884.66
2022-09-23T02:02:49.882Z,100886.02
2022-09-23T02:05:24.515Z,100885.27
2022-09-23T02:07:59.554Z,100885.23
2022-09-23T02:10:42.293Z,100890.61
2022-09-23T02:13:18.426Z,100888.30
2022-09-23T02:15:57.663Z,100883.87
2022-09-23T02:18:31.714Z,100883.62
2022-09-23T02:21:04.839Z,100879.58
2022-09-23T02:23:44.248Z,100878.36
2022-09-23T02:26:45.917Z,100872.80
2022-09-23T02:29:34.314Z,100871.21
2022-09-23T02:32:15.893Z,100869.42
2022-09-23T02:34:57.953Z,100863.58
2022-09-23T02:37:37.383Z,100862.63
2022-09-23T02:40:14.675Z,100859.98
2022-09-23T02:42:51.882Z,100862.04
2022-09-23T02:45:20.195Z,100860.64
2022-09-23T02:47:53.541Z,100860.42
2022-09-23T02:50:22.772Z,100859.52
2022-09-23T02:52:50.943Z,100856.64
2022-09-23T02:55:23.650Z,100854.67
2022-09-23T02:57:53.644Z,100856.20
2022-09-23T03:00:21.580Z,100858.45
2022-09-23T03:03:11.228Z,100856.33
2022-09-23T03:05:53.301Z,100856.36
2022-09-23T03:08:30.388Z,100849.20
2022-09-23T03:11:08.776Z,100850.58
2022-09-23T03:14:09.100Z,100850.84
2022-09-23T03:16:46.496Z,100848.33
2022-09-23T03:19:23.562Z,100848.25
2022-09-23T03:22:10.967Z,100845.45
2022-09-23T03:24:45.037Z,100842.49
2022-09-23T03:27:18.788Z,100840.03
2022-09-23T03:29:50.344Z,100835.14
2022-09-23T03:32:23.194Z,100834.19
2022-09-23T03:34:54.930Z,100826.33
2022-09-23T03:37:49.249Z,100820.36
2022-09-23T03:40:28.142Z,100819.23
2022-09-23T03:42:57.560Z,100817.48
2022-09-23T03:45:33.165Z,100811.54
2022-09-23T03:48:02.614Z,100809.83
2022-09-23T03:50:30.753Z,100809.63
2022-09-23T03:52:59.499Z,100811.32
2022-09-23T03:55:27.864Z,100807.77
2022-09-23T03:57:55.975Z,100805.27
2022-09-23T04:00:24.075Z,100806.65
2022-09-23T04:02:52.486Z,100807.70
2022-09-23T04:05:20.595Z,100803.39
2022-09-23T04:07:49.329Z,100799.59
2022-09-23T04:10:17.473Z,100799.94
2022-09-23T04:12:45.736Z,100797.27
2022-09-23T04:15:13.772Z,100800.55
2022-09-23T04:17:42.201Z,100794.77
2022-09-23T04:20:10.421Z,100796.10
2022-09-23T04:22:38.856Z,100790.69
2022-09-23T04:25:07.999Z,100790.15
2022-09-23T04:27:37.932Z,100788.92
2022-09-23T04:30:08.010Z,100782.45
2022-09-23T04:32:37.162Z,100782.58
2022-09-23T04:35:06.690Z,100781.30
2022-09-23T04:37:34.960Z,100780.73
2022-09-23T04:40:03.907Z,100776.84
2022-09-23T04:42:32.374Z,100776.61
2022-09-23T04:45:00.852Z,100776.42
2022-09-23T04:47:31.389Z,100776.15
2022-09-23T04:50:00.129Z,100771.84
2022-09-23T04:52:30.440Z,100766.46
2022-09-23T04:54:58.701Z,100770.79
2022-09-23T04:57:26.799Z,100775.22
2022-09-23T04:59:57.528Z,100774.61
2022-09-23T05:02:25.786Z,100775.81
2022-09-23T05:04:55.037Z,100776.16
2022-09-23T05:07:23.064Z,100776.37
2022-09-23T05:09:51.482Z,100776.77
2022-09-23T05:12:19.632Z,100780.45
2022-09-23T05:14:47.695Z,100780.39
2022-09-23T05:17:15.753Z,100782.84
2022-09-23T05:19:43.846Z,100780.05
2022-09-23T05:22:11.999Z,100785.80
2022-09-23T05:24:40.118Z,100786.04
2022-09-23T05:27:08.291Z,100788.52
2022-09-23T05:29:36.345Z,100791.72
2022-09-23T05:32:04.887Z,100790.87
2022-09-23T05:34:33.111Z,100791.90
2022-09-23T05:37:01.428Z,100793.98
2022-09-23T05:39:29.673Z,100795.38
2022-09-23T05:42:00.190Z,100794.34
2022-09-23T05:44:28.343Z,100795.14
2022-09-23T05:46:56.606Z,100796.81
2022-09-23T05:49:42.576Z,100793.40
2022-09-23T05:52:12.999Z,100791.70
2022-09-23T05:54:41.440Z,100792.77
2022-09-23T05:57:09.550Z,100792.45
2022-09-23T05:59:38.340Z,100788.17
2022-09-23T06:02:06.640Z,100790.71
2022-09-23T06:04:34.953Z,100791.03
2022-09-23T06:07:03.792Z,100788.03
2022-09-23T06:09:36.357Z,100788.52
2022-09-23T06:12:06.763Z,100792.45
2022-09-23T06:14:34.983Z,100788.21
2022-09-23T06:17:03.075Z,100787.60
2022-09-23T06:19:31.237Z,100788.77
2022-09-23T06:21:59.352Z,100787.66
2022-09-23T06:24:31.304Z,100785.59
2022-09-23T06:27:01.332Z,100784.37
2022-09-23T06:29:31.003Z,100788.91
2022-09-23T06:31:59.886Z,100785.42
2022-09-23T06:34:28.243Z,100788.86
2022-09-23T06:36:56.287Z,100791.64
2022-09-23T06:39:24.354Z,100792.13
2022-09-23T06:41:53.141Z,100792.48
2022-09-23T06:44:21.235Z,100790.91
2022-09-23T06:46:51.020Z,100793.39
2022-09-23T06:49:20.608Z,100789.29
2022-09-23T06:51:48.858Z,100787.24
2022-09-23T06:54:16.900Z,100784.83
2022-09-23T06:56:48.086Z,100784.52
2022-09-23T06:59:17.262Z,100783.63
2022-09-23T07:01:47.770Z,100787.77
2022-09-23T07:04:16.031Z,100788.42
2022-09-23T07:06:44.096Z,100789.99
2022-09-23T07:09:12.427Z,100789.10
2022-09-23T07:11:40.510Z,100789.65
2022-09-23T07:14:09.931Z,100785.11
2022-09-23T07:16:38.592Z,100786.57
2022-09-23T07:19:06.662Z,100786.09
2022-09-23T07:21:34.798Z,100790.51
2022-09-23T07:24:03.084Z,100791.58
2022-09-23T07:26:34.296Z,100789.70
2022-09-23T07:29:05.757Z,100784.14
2022-09-23T07:31:39.777Z,100783.46
2022-09-23T07:34:11.859Z,100779.31
2022-09-23T07:36:41.039Z,100779.63
2022-09-23T07:39:12.415Z,100781.34
2022-09-23T07:41:41.862Z,100777.09
2022-09-23T07:44:11.244Z,100779.64
2022-09-23T07:46:40.511Z,100777.54
2022-09-23T07:49:08.875Z,100780.84
2022-09-23T07:51:39.597Z,100781.45
2022-09-23T07:54:13.820Z,100777.70
2022-09-23T07:56:43.208Z,100783.88
2022-09-23T07:59:15.577Z,100780.81
2022-09-23T08:01:49.640Z,100781.44
2022-09-23T08:04:28.423Z,100783.13
2022-09-23T08:07:05.770Z,100786.35
2022-09-23T08:09:41.569Z,100781.86
2022-09-23T08:12:16.043Z,100778.55
2022-09-23T08:14:44.947Z,100781.29
2022-09-23T08:17:14.597Z,100781.23
2022-09-23T08:19:42.642Z,100782.72
2022-09-23T08:22:12.875Z,100784.53
2022-09-23T08:24:41.005Z,100784.42
2022-09-23T08:27:10.972Z,100777.83
2022-09-23T08:29:39.234Z,100777.36
2022-09-23T08:32:07.363Z,100778.29
2022-09-23T08:34:35.996Z,100779.76
2022-09-23T08:37:04.236Z,100778.05
2022-09-23T08:39:32.497Z,100777.75
2022-09-23T08:42:22.488Z,100773.94
2022-09-23T08:45:01.819Z,100773.46
2022-09-23T08:47:43.938Z,100773.16
2022-09-23T08:50:24.487Z,100776.38
2022-09-23T08:52:57.443Z,100770.66
2022-09-23T08:55:37.157Z,100769.86
2022-09-23T08:58:26.569Z,100765.02
2022-09-23T09:01:07.663Z,100765.60
2022-09-23T09:03:43.248Z,100765.84
2022-09-23T09:06:18.803Z,100765.55
2022-09-23T09:08:54.705Z,100761.90
2022-09-23T09:11:31.397Z,100760.71
2022-09-23T09:14:25.542Z,100762.88
2022-09-23T09:17:31.826Z,100761.52
2022-09-23T09:20:03.540Z,100756.30
2022-09-23T09:22:42.646Z,100755.63
2022-09-23T09:25:19.022Z,100754.77
2022-09-23T09:27:47.843Z,100754.27
2022-09-23T09:30:17.830Z,100755.16
2022-09-23T09:33:02.759Z,100760.27
2022-09-23T09:35:42.481Z,100756.78
2022-09-23T09:38:11.109Z,100756.45
2022-09-23T09:40:46.812Z,100753.99
2022-09-23T09:43:25.185Z,100751.02
2022-09-23T09:46:02.268Z,100749.80
2022-09-23T09:48:38.298Z,100741.91
2022-09-23T09:51:22.548Z,100742.62
2022-09-23T09:53:55.489Z,100739.81
2022-09-23T09:56:35.000Z,100737.19
2022-09-23T09:59:11.597Z,100736.30
2022-09-23T10:01:39.848Z,100731.20
2022-09-23T10:04:35.288Z,100730.15
2022-09-23T10:07:16.036Z,100726.64
2022-09-23T10:09:53.904Z,100723.98
2022-09-23T10:12:25.288Z,100718.92
2022-09-23T10:14:57.685Z,100715.75
2022-09-23T10:17:35.901Z,100718.91
2022-09-23T10:20:09.328Z,100711.70
2022-09-23T10:22:40.630Z,100710.46
2022-09-23T10:25:16.564Z,100705.70
2022-09-23T10:27:45.686Z,100702.00
2022-09-23T10:30:25.232Z,100703.73
2022-09-23T10:32:56.668Z,100702.81
2022-09-23T10:35:26.948Z,100693.30
2022-09-23T10:37:59.636Z,100690.80
2022-09-23T10:40:54.224Z,100684.59
2022-09-23T10:43:56.426Z,100686.67
2022-09-23T10:46:46.051Z,100685.77
2022-09-23T10:49:34.091Z,100682.40
2022-09-23T10:52:43.674Z,100682.59
2022-09-23T10:55:36.009Z,100676.42
2022-09-23T10:58:41.421Z,100671.33
2022-09-23T11:01:21.445Z,100674.48
2022-09-23T11:04:00.706Z,100670.10
2022-09-23T11:07:09.412Z,100673.30
2022-09-23T11:09:55.644Z,100665.77
2022-09-23T11:12:45.785Z,100661.94
2022-09-23T11:15:20.965Z,100665.48
2022-09-23T11:18:18.044Z,100655.65
2022-09-23T11:21:35.529Z,100655.84
2022-09-23T11:24:18.460Z,100650.57
2022-09-23T11:26:58.289Z,100645.30
2022-09-23T11:30:00.948Z,100644.41
2022-09-23T11:33:04.860Z,100634.04
2022-09-23T11:35:42.403Z,100628.74
2022-09-23T11:38:15.982Z,100630.14
2022-09-23T11:40:48.422Z,100625.92
2022-09-23T11:43:31.865Z,100623.80
2022-09-23T11:46:05.476Z,100618.69
2022-09-23T11:48:43.894Z,100619.75
2022-09-23T11:51:22.634Z,100615.88
2022-09-23T11:53:58.054Z,100614.65
2022-09-23T11:56:58.933Z,100607.94
2022-09-23T11:59:40.985Z,100608.10
2022-09-23T12:03:03.326Z,100598.90
2022-09-23T12:05:47.597Z,100597.59
2022-09-23T12:08:33.661Z,100597.71
2022-09-23T12:11:06.632Z,100597.66
2022-09-23T12:13:52.723Z,100594.12
2022-09-23T12:16:50.808Z,100594.30
2022-09-23T12:19:56.384Z,100592.55
2022-09-23T12:22:36.893Z,100595.04
2022-09-23T12:25:10.588Z,100593.27
2022-09-23T12:27:48.401Z,100592.94
2022-09-23T12:30:23.447Z,100591.73
2022-09-23T12:32:52.187Z,100588.19
2022-09-23T12:35:36.005Z,100588.90
2022-09-23T12:38:13.881Z,100584.33
2022-09-23T12:40:44.969Z,100583.44
2022-09-23T12:43:18.630Z,100579.20
2022-09-23T12:45:48.214Z,100577.45
2022-09-23T12:48:16.228Z,100579.05
2022-09-23T12:50:57.006Z,100576.42
2022-09-23T12:53:34.056Z,100579.78
2022-09-23T12:56:15.757Z,100579.27
2022-09-23T12:58:43.864Z,100580.86
2022-09-23T13:01:15.558Z,100574.54
2022-09-23T13:04:08.600Z,100574.71
2022-09-23T13:06:47.854Z,100568.58
2022-09-23T13:09:22.176Z,100563.47
2022-09-23T13:11:53.318Z,100560.83
2022-09-23T13:14:27.573Z,100559.40
2022-09-23T13:17:00.830Z,100557.44
2022-09-23T13:19:28.986Z,100557.09
2022-09-23T13:22:07.958Z,100554.80
2022-09-23T13:24:54.723Z,100549.85
2022-09-23T13:27:28.400Z,100540.17
2022-09-23T13:30:13.993Z,100537.17
2022-09-23T13:32:49.942Z,100533.64
2022-09-23T13:35:30.085Z,100531.33
2022-09-23T13:37:58.356Z,100528.50
2022-09-23T13:40:31.239Z,100527.43
2022-09-23T13:43:04.752Z,100525.64
2022-09-23T13:45:38.034Z,100524.55
2022-09-23T13:48:13.853Z,100519.23
2022-09-23T13:50:50.446Z,100518.15
2022-09-23T13:53:30.737Z,100517.40
2022-09-23T13:56:13.695Z,100513.16
2022-09-23T13:58:43.659Z,100509.64
2022-09-23T14:01:35.377Z,100503.14
2022-09-23T14:04:03.751Z,100497.54
2022-09-23T14:06:32.363Z,100496.48
2022-09-23T14:09:02.157Z,100493.84
2022-09-23T14:11:33.310Z,100488.36
2022-09-23T14:14:07.413Z,100491.52
2022-09-23T14:16:39.785Z,100489.92
2022-09-23T14:19:17.714Z,100485.14
2022-09-23T14:21:51.446Z,100483.74
2022-09-23T14:24:21.212Z,100478.44
2022-09-23T14:26:51.063Z,100476.67
2022-09-23T14:29:20.933Z,100475.45
2022-09-23T14:32:00.359Z,100477.22
2022-09-23T14:35:01.415Z,100479.52
2022-09-23T14:37:57.669Z,100472.85
2022-09-23T14:40:28.090Z,100467.79
2022-09-23T14:42:59.053Z,100469.02
2022-09-23T14:45:39.866Z,100462.69
2022-09-23T14:48:19.301Z,100464.61
2022-09-23T14:50:56.979Z,100461.45
2022-09-23T14:53:43.057Z,100456.15
2022-09-23T14:56:14.851Z,100456.66
2022-09-23T14:58:53.995Z,100454.74
2022-09-23T15:01:31.528Z,100454.04
2022-09-23T15:04:09.901Z,100454.60
2022-09-23T15:06:42.503Z,100448.98
2022-09-23T15:09:20.244Z,100445.80
2022-09-23T15:11:51.993Z,100446.52
2022-09-23T15:14:37.248Z,100442.83
2022-09-23T15:17:17.350Z,100442.14
2022-09-23T15:19:49.333Z,100443.38
2022-09-23T15:22:17.969Z,100443.22
2022-09-23T15:24:46.369Z,100442.88
2022-09-23T15:27:34.575Z,100441.33
2022-09-23T15:30:23.259Z,100440.48
2022-09-23T15:32:51.375Z,100437.52
2022-09-23T15:35:22.740Z,100434.91
2022-09-23T15:37:51.719Z,100435.98
2022-09-23T15:40:22.164Z,100433.55
2022-09-23T15:42:52.826Z,100437.59
2022-09-23T15:45:34.362Z,100437.80
2022-09-23T15:48:11.502Z,100436.08
2022-09-23T15:50:47.241Z,100434.17
2022-09-23T15:53:33.441Z,100433.32
2022-09-23T15:56:01.858Z,100433.17
2022-09-23T15:58:30.218Z,100432.31
2022-09-23T16:01:01.157Z,100434.27
2022-09-23T16:03:29.684Z,100428.16
2022-09-23T16:06:14.903Z,100427.30
2022-09-23T16:08:43.066Z,100427.67
2022-09-23T16:11:55.610Z,100424.02
2022-09-23T16:14:24.801Z,100422.86
2022-09-23T16:16:53.216Z,100424.98
2022-09-23T16:19:24.247Z,100426.97
2022-09-23T16:21:52.659Z,100425.23
2022-09-23T16:24:26.005Z,100422.98
2022-09-23T16:27:00.158Z,100420.90
2022-09-23T16:29:28.304Z,100421.98
2022-09-23T16:31:56.488Z,100425.71
2022-09-23T16:34:25.085Z,100420.11
2022-09-23T16:36:53.297Z,100419.95
2022-09-23T16:39:30.838Z,100414.70
2022-09-23T16:41:58.978Z,100418.59
2022-09-23T16:44:27.032Z,100413.70
2022-09-23T16:46:55.361Z,100412.14
2022-09-23T16:49:27.377Z,100415.14
2022-09-23T16:51:55.750Z,100416.91
2022-09-23T16:54:24.556Z,100416.21
2022-09-23T16:56:56.627Z,100417.98
2022-09-23T16:59:49.305Z,100415.20
2022-09-23T17:02:36.222Z,100416.98
2022-09-23T17:05:21.887Z,100420.86
2022-09-23T17:07:54.478Z,100421.23
2022-09-23T17:10:23.214Z,100419.31
2022-09-23T17:12:59.176Z,100418.80
2022-09-23T17:15:27.428Z,100415.31
2022-09-23T17:17:55.498Z,100416.40
2022-09-23T17:23:37.930Z,100414.31
2022-09-23T17:26:09.959Z,100416.44
2022-09-23T17:28:42.244Z,100415.58
2022-09-23T17:31:12.557Z,100415.40
2022-09-23T17:33:41.582Z,100415.94
2022-09-23T17:36:12.571Z,100412.44
2022-09-23T17:38:45.208Z,100414.38
2022-09-23T17:41:16.016Z,100411.05
2022-09-23T17:43:46.053Z,100411.59
2022-09-23T17:46:19.853Z,100411.77
2022-09-23T17:48:49.001Z,100411.06
2022-09-23T17:51:22.860Z,100413.17
2022-09-23T17:53:52.047Z,100411.75
2022-09-23T17:56:37.023Z,100411.21
2022-09-23T17:59:06.694Z,100410.52
2022-09-23T18:01:35.898Z,100405.42
2022-09-23T18:04:08.268Z,100401.39
2022-09-23T18:06:44.221Z,100409.29
2022-09-23T18:09:13.692Z,100402.98
2022-09-23T18:11:44.758Z,100403.31
2022-09-23T18:14:23.208Z,100403.14
2022-09-23T18:16:53.986Z,100403.66
2022-09-23T18:19:26.712Z,100402.26
2022-09-23T18:22:22.323Z,100403.83
2022-09-23T18:24:52.144Z,100402.95
2022-09-23T18:30:35.701Z,100401.38
2022-09-23T18:33:35.133Z,100400.32
2022-09-23T18:36:05.872Z,100399.27
2022-09-23T18:38:39.546Z,100401.36
2022-09-23T18:41:11.479Z,100401.38
2022-09-23T18:43:48.481Z,100402.23
2022-09-23T18:46:48.346Z,100400.86
2022-09-23T18:49:39.737Z,100397.17
2022-09-23T18:52:08.226Z,100396.81
2022-09-23T18:54:39.575Z,100392.77
2022-09-23T18:57:08.312Z,100391.20
2022-09-23T18:59:39.271Z,100389.63
2022-09-23T19:02:16.805Z,100384.38
2022-09-23T19:04:50.099Z,100389.45
2022-09-23T19:07:32.347Z,100381.56
2022-09-23T19:17:17.907Z,100377.02
2022-09-23T19:20:00.046Z,100376.83
2022-09-23T19:22:35.425Z,100376.83
2022-09-23T19:25:09.194Z,100374.90
2022-09-23T19:27:39.778Z,100371.39
2022-09-23T19:30:11.258Z,100370.68
2022-09-23T19:32:40.677Z,100372.42
2022-09-23T19:35:31.088Z,100376.98
2022-09-23T19:38:28.434Z,100373.30
2022-09-23T20:14:04.814Z,100362.56
2022-09-23T20:25:36.898Z,100352.75
2022-09-23T20:33:20.551Z,100356.45
2022-09-23T20:35:51.360Z,100352.95
2022-09-23T20:38:25.934Z,100354.35
2022-09-23T20:51:26.626Z,100339.65
2022-09-23T21:02:28.773Z,100331.06
2022-09-23T21:28:08.122Z,100326.48
2022-09-23T21:38:57.851Z,100317.22
2022-09-23T21:46:14.988Z,100311.78
2022-09-23T21:48:49.532Z,100315.63
2022-09-23T21:51:36.138Z,100315.09
2022-09-23T21:54:18.607Z,100319.13
2022-09-23T21:56:56.714Z,100315.10
2022-09-23T21:59:24.635Z,100317.39
2022-09-23T22:01:54.369Z,100313.00
2022-09-23T22:04:31.956Z,100312.13
2022-09-23T22:07:18.314Z,100314.04
2022-09-23T22:14:15.053Z,100314.54
2022-09-23T22:23:03.099Z,100315.23
2022-09-23T22:26:11.738Z,100309.11
2022-09-23T23:18:30.900Z,100278.47
2022-09-23T23:21:31.633Z,100276.02
2022-09-23T23:25:21.921Z,100273.59
2022-09-23T23:29:06.119Z,100275.16
2022-09-23T23:35:19.743Z,100266.41
2022-09-23T23:37:47.231Z,100265.88
2022-09-23T23:40:14.369Z,100267.27
2022-09-23T23:42:43.797Z,100269.21
2022-09-23T23:45:11.230Z,100266.05
2022-09-23T23:47:40.798Z,100261.16
2022-09-23T23:50:15.818Z,100259.05
2022-09-23T23:52:42.788Z,100259.58
2022-09-23T23:55:09.791Z,100256.42
2022-09-23T23:57:39.168Z,100260.28
